Time;durP1;ratioP1;P1;durP2;ratioP2;P2;SDS_P1;SDS_P2;PMS_P1;PMS_P2;Temp;Humidity;BMP_temperature;BMP_pressure;BME280_temperature;BME280_humidity;BME280_pressure;Samples;Min_cycle;Max_cycle;Signal;HPM_P1;HPM_P2
2023/06/29 00:01:42;;;;;;;;;70.00;55.00;;;;;;;;5025806;28;45536;-79
2023/06/29 00:04:07;;;;;;;;;78.50;58.00;;;;;;;;5009947;28;45748;-78
2023/06/29 00:06:36;;;;;;;;;62.00;48.00;;;;;;;;5030458;28;45699;-80
2023/06/29 00:09:01;;;;;;;;;73.50;55.50;;;;;;;;5030672;28;45567;-81
2023/06/29 00:11:27;;;;;;;;;64.00;47.67;;;;;;;;5039668;28;45730;-84
2023/06/29 00:13:52;;;;;;;;;66.33;46.67;;;;;;;;5025223;28;45686;-84
2023/06/29 00:16:18;;;;;;;;;69.00;53.25;;;;;;;;5018048;28;45796;-83
2023/06/29 00:18:43;;;;;;;;;66.00;48.75;;;;;;;;5016991;28;45961;-84
2023/06/29 00:21:08;;;;;;;;;73.25;56.25;;;;;;;;5020921;28;45786;-84
2023/06/29 00:23:34;;;;;;;;;76.25;56.00;;;;;;;;5042794;28;45738;-83
2023/06/29 00:26:01;;;;;;;;;75.25;57.00;;;;;;;;5041505;28;45387;-83
2023/06/29 00:28:26;;;;;;;;;84.25;66.75;;;;;;;;5037410;28;46133;-82
2023/06/29 00:30:51;;;;;;;;;75.50;59.75;;;;;;;;5027172;28;47187;-82
2023/06/29 00:33:16;;;;;;;;;80.00;63.00;;;;;;;;5033713;28;45422;-81
2023/06/29 00:35:42;;;;;;;;;83.75;68.50;;;;;;;;5033040;28;45525;-83
2023/06/29 00:38:07;;;;;;;;;81.50;66.75;;;;;;;;5033232;28;45671;-82
2023/06/29 00:40:32;;;;;;;;;86.25;68.50;;;;;;;;5050837;28;45779;-83
2023/06/29 00:42:57;;;;;;;;;84.75;67.75;;;;;;;;5035513;28;45905;-83
2023/06/29 00:45:22;;;;;;;;;84.00;68.00;;;;;;;;5041529;28;45440;-81
2023/06/29 00:47:48;;;;;;;;;79.50;59.00;;;;;;;;5048948;28;45827;-81
2023/06/29 00:50:13;;;;;;;;;83.25;60.75;;;;;;;;5041807;28;45789;-82
2023/06/29 00:52:39;;;;;;;;;73.25;56.75;;;;;;;;5045249;28;45774;-81
2023/06/29 00:55:05;;;;;;;;;81.00;67.75;;;;;;;;5039337;28;45561;-81
2023/06/29 00:57:30;;;;;;;;;89.00;73.25;;;;;;;;5036035;28;45476;-81
2023/06/29 00:59:59;;;;;;;;;78.25;61.25;;;;;;;;5024758;28;46309;-82
2023/06/29 01:02:25;;;;;;;;;72.25;55.25;;;;;;;;5035282;28;45377;-82
2023/06/29 01:04:50;;;;;;;;;77.75;59.00;;;;;;;;5033509;28;45390;-83
2023/06/29 01:07:34;;;;;;;;;74.75;56.00;;;;;;;;5025058;28;45530;-83
2023/06/29 01:10:00;;;;;;;;;71.75;55.75;;;;;;;;5041540;28;45896;-83
2023/06/29 01:12:26;;;;;;;;;72.00;55.00;;;;;;;;5053100;28;45838;-83
2023/06/29 01:14:54;;;;;;;;;74.25;56.00;;;;;;;;5039134;28;45875;-82
2023/06/29 01:17:21;;;;;;;;;84.00;61.75;;;;;;;;5039008;28;45464;-81
2023/06/29 01:19:47;;;;;;;;;77.50;58.75;;;;;;;;5042034;28;46138;-80
2023/06/29 01:22:29;;;;;;;;;78.50;60.25;;;;;;;;5039649;28;45435;-81
2023/06/29 01:24:55;;;;;;;;;76.00;61.00;;;;;;;;5041237;28;45641;-80
2023/06/29 01:27:21;;;;;;;;;81.50;67.50;;;;;;;;5042118;28;45488;-81
2023/06/29 01:29:46;;;;;;;;;81.75;66.25;;;;;;;;5023283;28;47336;-82
2023/06/29 01:32:12;;;;;;;;;80.25;62.50;;;;;;;;5032473;28;45820;-80
2023/06/29 01:34:38;;;;;;;;;80.75;66.75;;;;;;;;5013200;28;45812;-82
2023/06/29 01:37:11;;;;;;;;;78.75;60.75;;;;;;;;5016133;28;45458;-81
2023/06/29 01:39:49;;;;;;;;;77.25;57.50;;;;;;;;5015912;28;48602;-82
2023/06/29 01:42:15;;;;;;;;;76.25;56.25;;;;;;;;5003395;28;45940;-80
2023/06/29 01:44:40;;;;;;;;;77.25;62.25;;;;;;;;5033237;28;45844;-81
2023/06/29 01:47:07;;;;;;;;;78.75;57.50;;;;;;;;5016174;28;46205;-83
2023/06/29 01:49:33;;;;;;;;;77.75;59.00;;;;;;;;5033924;28;45497;-82
2023/06/29 01:51:58;;;;;;;;;79.50;62.00;;;;;;;;5040444;28;45833;-81
2023/06/29 01:54:24;;;;;;;;;81.00;64.00;;;;;;;;5037806;28;45620;-81
2023/06/29 01:56:49;;;;;;;;;75.50;58.00;;;;;;;;5037690;28;45873;-81
2023/06/29 01:59:14;;;;;;;;;74.25;58.25;;;;;;;;5042053;28;46845;-83
2023/06/29 02:01:39;;;;;;;;;78.50;60.25;;;;;;;;5014775;28;45693;-79
2023/06/29 02:04:05;;;;;;;;;71.50;54.00;;;;;;;;5030573;28;46036;-80
2023/06/29 02:06:30;;;;;;;;;65.25;49.25;;;;;;;;5020575;28;45461;-77
2023/06/29 02:08:55;;;;;;;;;72.75;56.00;;;;;;;;5039351;28;45528;-78
2023/06/29 02:11:20;;;;;;;;;70.50;52.75;;;;;;;;5029089;28;45458;-78
2023/06/29 02:13:47;;;;;;;;;66.75;50.25;;;;;;;;5030390;28;45534;-78
2023/06/29 02:16:12;;;;;;;;;70.25;54.50;;;;;;;;4997636;28;45927;-81
2023/06/29 02:18:37;;;;;;;;;70.50;54.25;;;;;;;;5014467;28;46122;-82
2023/06/29 02:21:02;;;;;;;;;69.50;53.00;;;;;;;;5051625;28;45628;-81
2023/06/29 02:23:28;;;;;;;;;66.00;51.67;;;;;;;;5053334;28;45766;-80
2023/06/29 02:25:53;;;;;;;;;68.00;50.33;;;;;;;;5053060;28;45561;-82
2023/06/29 02:28:18;;;;;;;;;60.67;48.67;;;;;;;;5039518;28;45679;-81
2023/06/29 02:30:44;;;;;;;;;58.25;46.75;;;;;;;;5024671;28;45484;-79
2023/06/29 02:33:09;;;;;;;;;64.33;49.00;;;;;;;;5025407;28;45393;-80
2023/06/29 02:35:34;;;;;;;;;68.67;50.00;;;;;;;;5024340;28;45725;-80
2023/06/29 02:38:03;;;;;;;;;65.00;48.00;;;;;;;;5029895;28;45795;-80
2023/06/29 02:40:28;;;;;;;;;58.00;44.67;;;;;;;;5016927;28;45418;-80
2023/06/29 02:42:53;;;;;;;;;55.67;43.33;;;;;;;;5050735;28;45407;-81
2023/06/29 02:45:19;;;;;;;;;49.33;37.33;;;;;;;;5034740;28;46055;-80
2023/06/29 02:47:45;;;;;;;;;52.33;42.67;;;;;;;;5028320;28;46345;-82
2023/06/29 02:50:10;;;;;;;;;52.00;39.00;;;;;;;;5022561;28;45510;-81
2023/06/29 02:52:40;;;;;;;;;47.00;39.00;;;;;;;;5033228;28;45403;-80
2023/06/29 02:55:06;;;;;;;;;50.00;37.67;;;;;;;;5008478;28;45802;-82
2023/06/29 02:57:57;;;;;;;;;47.67;37.33;;;;;;;;5016507;28;47295;-81
2023/06/29 03:00:27;;;;;;;;;42.33;35.00;;;;;;;;5036028;28;45796;-81
2023/06/29 03:02:55;;;;;;;;;39.00;32.67;;;;;;;;5014596;28;45547;-82
2023/06/29 03:05:22;;;;;;;;;37.00;30.67;;;;;;;;5015253;28;45939;-81
2023/06/29 03:07:50;;;;;;;;;46.67;36.00;;;;;;;;5013373;28;46376;-82
2023/06/29 03:10:17;;;;;;;;;48.00;38.00;;;;;;;;5032144;28;45701;-82
2023/06/29 03:12:54;;;;;;;;;40.00;30.00;;;;;;;;5031593;28;45861;-82
2023/06/29 03:15:20;;;;;;;;;44.00;34.67;;;;;;;;5008119;28;45526;-81
2023/06/29 03:17:48;;;;;;;;;37.67;29.00;;;;;;;;5016994;28;47182;-81
2023/06/29 03:20:16;;;;;;;;;44.33;36.00;;;;;;;;5014090;28;47173;-81
2023/06/29 03:22:45;;;;;;;;;40.00;34.67;;;;;;;;5017818;28;45678;-80
2023/06/29 03:25:10;;;;;;;;;43.33;34.67;;;;;;;;5025588;28;45719;-81
2023/06/29 03:27:37;;;;;;;;;51.00;36.67;;;;;;;;5038813;28;45723;-80
2023/06/29 03:30:08;;;;;;;;;55.67;41.67;;;;;;;;5044558;28;46258;-81
2023/06/29 03:32:39;;;;;;;;;52.33;41.00;;;;;;;;5041844;28;45839;-81
2023/06/29 03:35:08;;;;;;;;;54.00;42.33;;;;;;;;5046256;28;45639;-81
2023/06/29 03:40:51;;;;;;;;;59.00;41.33;;;;;;;;5030916;28;45474;-84
2023/06/29 03:43:17;;;;;;;;;54.00;38.67;;;;;;;;5046878;28;45465;-82
2023/06/29 03:45:43;;;;;;;;;46.00;40.00;;;;;;;;5042978;28;45500;-82
2023/06/29 03:48:08;;;;;;;;;47.67;36.67;;;;;;;;5034412;28;45589;-80
2023/06/29 03:50:33;;;;;;;;;43.00;32.33;;;;;;;;5037423;28;45324;-80
2023/06/29 03:52:58;;;;;;;;;41.00;33.00;;;;;;;;5037923;28;45387;-79
2023/06/29 03:55:27;;;;;;;;;42.33;36.00;;;;;;;;5035984;28;45689;-81
2023/06/29 03:57:52;;;;;;;;;38.67;32.33;;;;;;;;5034753;28;46506;-80
2023/06/29 04:00:18;;;;;;;;;34.67;31.00;;;;;;;;5036658;28;45884;-83
2023/06/29 04:02:43;;;;;;;;;29.67;27.67;;;;;;;;5036634;28;46643;-82
2023/06/29 04:05:09;;;;;;;;;44.67;33.33;;;;;;;;5038737;28;46641;-82
2023/06/29 04:07:34;;;;;;;;;59.00;45.00;;;;;;;;5046822;28;46232;-80
2023/06/29 04:10:00;;;;;;;;;38.67;34.33;;;;;;;;5035625;28;46070;-79
2023/06/29 04:12:25;;;;;;;;;34.00;30.67;;;;;;;;5036905;28;45472;-81
2023/06/29 04:14:50;;;;;;;;;40.33;33.00;;;;;;;;5035894;28;45549;-81
2023/06/29 04:17:16;;;;;;;;;43.67;35.00;;;;;;;;5040576;28;45401;-80
2023/06/29 04:19:41;;;;;;;;;45.00;33.33;;;;;;;;5040883;28;45766;-79
2023/06/29 04:22:09;;;;;;;;;48.67;40.00;;;;;;;;5031855;28;45473;-81
2023/06/29 04:24:35;;;;;;;;;41.33;32.00;;;;;;;;5038576;28;45692;-81
2023/06/29 04:27:00;;;;;;;;;44.00;34.33;;;;;;;;5017351;28;47046;-80
2023/06/29 04:29:25;;;;;;;;;47.33;35.33;;;;;;;;5044350;28;44935;-81
2023/06/29 04:31:52;;;;;;;;;45.00;34.33;;;;;;;;5032630;28;45434;-82
2023/06/29 04:34:17;;;;;;;;;42.67;32.00;;;;;;;;5048875;28;45665;-81
2023/06/29 04:36:45;;;;;;;;;40.33;33.00;;;;;;;;5037623;28;45930;-82
2023/06/29 04:39:11;;;;;;;;;40.00;32.33;;;;;;;;5047060;28;45474;-85
2023/06/29 04:41:36;;;;;;;;;45.33;36.00;;;;;;;;5042755;28;45665;-83
2023/06/29 04:44:03;;;;;;;;;37.67;31.33;;;;;;;;5048671;28;45497;-83
2023/06/29 04:46:28;;;;;;;;;66.33;51.67;;;;;;;;5051450;28;46077;-84
2023/06/29 04:48:53;;;;;;;;;36.33;32.67;;;;;;;;5030086;28;45503;-82
2023/06/29 04:51:19;;;;;;;;;37.33;32.33;;;;;;;;5029859;28;45424;-81
2023/06/29 04:53:44;;;;;;;;;38.33;32.67;;;;;;;;5036746;28;45520;-82
2023/06/29 04:56:09;;;;;;;;;38.67;32.67;;;;;;;;5029721;28;46212;-81
2023/06/29 04:58:35;;;;;;;;;44.67;34.33;;;;;;;;5039452;28;45684;-82
2023/06/29 05:01:00;;;;;;;;;37.33;32.67;;;;;;;;5047430;28;45725;-84
2023/06/29 05:03:28;;;;;;;;;46.33;32.33;;;;;;;;5024957;28;47596;-84
2023/06/29 05:05:53;;;;;;;;;41.00;33.33;;;;;;;;5041240;28;46013;-92
2023/06/29 05:08:19;;;;;;;;;40.33;32.67;;;;;;;;5016577;28;45455;-81
2023/06/29 05:10:44;;;;;;;;;41.33;34.33;;;;;;;;5028038;28;44943;-82
2023/06/29 05:13:09;;;;;;;;;37.00;30.67;;;;;;;;5033072;28;46099;-84
2023/06/29 05:15:34;;;;;;;;;36.00;31.67;;;;;;;;5016796;28;45709;-84
2023/06/29 05:18:00;;;;;;;;;46.67;36.33;;;;;;;;5032962;28;45608;-83
2023/06/29 05:20:25;;;;;;;;;43.67;34.33;;;;;;;;5014554;28;45734;-82
2023/06/29 05:22:50;;;;;;;;;37.67;30.00;;;;;;;;5032151;28;45751;-81
2023/06/29 05:25:15;;;;;;;;;40.67;33.33;;;;;;;;5029174;28;45577;-83
2023/06/29 05:27:41;;;;;;;;;43.00;33.33;;;;;;;;5030788;28;45447;-84
2023/06/29 05:30:08;;;;;;;;;33.67;32.67;;;;;;;;5012548;28;45515;-84
2023/06/29 05:32:34;;;;;;;;;33.00;28.00;;;;;;;;5021362;28;45910;-83
2023/06/29 05:34:59;;;;;;;;;41.33;32.67;;;;;;;;5028793;28;46281;-84
2023/06/29 05:37:25;;;;;;;;;39.67;35.33;;;;;;;;5044479;28;45363;-82
2023/06/29 05:39:50;;;;;;;;;37.67;32.67;;;;;;;;5016278;28;45729;-83
2023/06/29 05:42:15;;;;;;;;;47.67;34.67;;;;;;;;5016303;28;46121;-83
2023/06/29 05:44:40;;;;;;;;;36.00;28.33;;;;;;;;5034730;28;45658;-82
2023/06/29 05:47:06;;;;;;;;;38.33;34.33;;;;;;;;5033974;28;45424;-82
2023/06/29 05:49:31;;;;;;;;;45.33;35.33;;;;;;;;5020612;28;45717;-83
2023/06/29 05:51:56;;;;;;;;;43.67;32.00;;;;;;;;5033636;28;45722;-81
2023/06/29 05:54:21;;;;;;;;;42.33;33.33;;;;;;;;5032164;28;45869;-82
2023/06/29 05:56:49;;;;;;;;;41.33;34.67;;;;;;;;5049800;28;45514;-83
2023/06/29 05:59:14;;;;;;;;;41.67;34.00;;;;;;;;5047928;28;45701;-79
2023/06/29 06:01:40;;;;;;;;;40.00;34.33;;;;;;;;5039144;28;45749;-78
2023/06/29 06:04:05;;;;;;;;;37.33;33.00;;;;;;;;5011088;28;46717;-78
2023/06/29 06:06:32;;;;;;;;;42.67;36.00;;;;;;;;5024031;28;45870;-80
2023/06/29 06:08:57;;;;;;;;;49.00;35.00;;;;;;;;5025840;28;45433;-81
2023/06/29 06:11:23;;;;;;;;;40.00;33.67;;;;;;;;5016454;28;45904;-82
2023/06/29 06:13:48;;;;;;;;;34.33;27.33;;;;;;;;5048193;28;46145;-82
2023/06/29 06:16:13;;;;;;;;;35.67;30.00;;;;;;;;5017799;28;45666;-82
2023/06/29 06:18:39;;;;;;;;;41.00;32.67;;;;;;;;5035779;28;45354;-81
2023/06/29 06:21:04;;;;;;;;;43.67;33.67;;;;;;;;5016047;28;46022;-80
2023/06/29 06:23:29;;;;;;;;;47.33;35.33;;;;;;;;5017443;28;47104;-79
2023/06/29 06:25:54;;;;;;;;;47.33;36.67;;;;;;;;5035083;28;45465;-79
2023/06/29 06:28:20;;;;;;;;;37.67;31.33;;;;;;;;5016661;28;45288;-81
2023/06/29 06:30:46;;;;;;;;;44.67;31.33;;;;;;;;5039677;28;45313;-81
2023/06/29 06:33:12;;;;;;;;;35.00;31.00;;;;;;;;5031146;28;45826;-82
2023/06/29 06:35:37;;;;;;;;;44.33;34.00;;;;;;;;5031152;28;45790;-82
2023/06/29 06:38:02;;;;;;;;;46.67;32.33;;;;;;;;5025015;28;45664;-80
2023/06/29 06:40:27;;;;;;;;;41.00;34.67;;;;;;;;5020644;28;45561;-81
2023/06/29 06:42:53;;;;;;;;;36.67;33.67;;;;;;;;5018495;28;46281;-81
2023/06/29 06:45:18;;;;;;;;;35.67;33.00;;;;;;;;5032694;28;45450;-82
2023/06/29 06:47:43;;;;;;;;;43.00;31.33;;;;;;;;5039145;28;45426;-83
2023/06/29 06:50:09;;;;;;;;;40.33;32.67;;;;;;;;5027625;28;45638;-82
2023/06/29 06:52:34;;;;;;;;;34.67;29.33;;;;;;;;5020786;28;47518;-79
2023/06/29 06:54:59;;;;;;;;;41.00;33.33;;;;;;;;5029082;28;45390;-81
2023/06/29 06:57:24;;;;;;;;;33.33;24.33;;;;;;;;5034141;28;45616;-82
2023/06/29 06:59:50;;;;;;;;;36.00;33.00;;;;;;;;5045890;28;45530;-82
2023/06/29 07:02:15;;;;;;;;;38.00;31.33;;;;;;;;5042598;28;47190;-81
2023/06/29 07:04:40;;;;;;;;;40.67;34.33;;;;;;;;5047060;28;45741;-81
2023/06/29 07:07:07;;;;;;;;;47.00;33.00;;;;;;;;5019341;28;45554;-82
2023/06/29 07:09:32;;;;;;;;;40.33;33.00;;;;;;;;5032694;28;45942;-81
2023/06/29 07:11:58;;;;;;;;;43.00;31.00;;;;;;;;5043970;28;46011;-81
2023/06/29 07:14:23;;;;;;;;;43.67;33.00;;;;;;;;5022058;28;45826;-82
2023/06/29 07:16:48;;;;;;;;;49.00;38.33;;;;;;;;5031985;28;45372;-81
2023/06/29 07:19:15;;;;;;;;;42.67;34.67;;;;;;;;5040872;28;45589;-81
2023/06/29 07:21:40;;;;;;;;;37.00;32.33;;;;;;;;5036381;28;46615;-81
2023/06/29 07:24:05;;;;;;;;;39.33;34.67;;;;;;;;5044751;28;45479;-82
2023/06/29 07:26:31;;;;;;;;;30.67;26.00;;;;;;;;5020801;28;45481;-81
2023/06/29 07:28:56;;;;;;;;;45.00;32.00;;;;;;;;5025194;28;45300;-83
2023/06/29 07:31:25;;;;;;;;;43.33;32.67;;;;;;;;5024189;28;46221;-80
2023/06/29 07:33:52;;;;;;;;;47.00;35.33;;;;;;;;5034610;28;45909;-81
2023/06/29 07:36:17;;;;;;;;;40.00;32.00;;;;;;;;5017077;28;46292;-81
2023/06/29 07:38:42;;;;;;;;;40.67;26.67;;;;;;;;5039275;28;45340;-81
2023/06/29 07:41:08;;;;;;;;;35.00;27.67;;;;;;;;5025138;28;45395;-81
2023/06/29 07:43:34;;;;;;;;;46.67;35.00;;;;;;;;5039238;28;45801;-76
2023/06/29 07:45:59;;;;;;;;;41.00;32.67;;;;;;;;5038760;28;46046;-77
2023/06/29 07:48:25;;;;;;;;;43.67;33.33;;;;;;;;5032551;28;45683;-76
2023/06/29 07:50:50;;;;;;;;;32.67;26.00;;;;;;;;5045962;28;45678;-76
2023/06/29 07:53:16;;;;;;;;;40.00;28.33;;;;;;;;5051714;28;45729;-77
2023/06/29 07:55:41;;;;;;;;;35.33;33.00;;;;;;;;5050921;28;45748;-77
2023/06/29 07:58:06;;;;;;;;;38.67;33.00;;;;;;;;5035574;28;45695;-76
2023/06/29 08:00:31;;;;;;;;;46.00;33.67;;;;;;;;5037539;28;47021;-76
2023/06/29 08:02:57;;;;;;;;;40.00;32.00;;;;;;;;5026303;28;45949;-76
2023/06/29 08:05:23;;;;;;;;;43.33;33.00;;;;;;;;5042764;28;45752;-77
2023/06/29 08:07:49;;;;;;;;;30.67;28.33;;;;;;;;5039324;28;45434;-78
2023/06/29 08:10:15;;;;;;;;;32.33;28.67;;;;;;;;5037689;28;45631;-76
2023/06/29 08:12:40;;;;;;;;;39.67;35.00;;;;;;;;5028652;28;45363;-77
2023/06/29 08:15:06;;;;;;;;;39.33;33.00;;;;;;;;5023692;28;45660;-77
2023/06/29 08:17:32;;;;;;;;;36.67;33.00;;;;;;;;5043864;28;45815;-76
2023/06/29 08:19:57;;;;;;;;;34.00;30.00;;;;;;;;5051889;28;46062;-77
2023/06/29 08:22:22;;;;;;;;;27.33;26.67;;;;;;;;5054080;28;45484;-76
2023/06/29 08:24:48;;;;;;;;;32.33;30.00;;;;;;;;5044185;28;45797;-78
2023/06/29 08:27:13;;;;;;;;;34.00;32.67;;;;;;;;5017095;28;45744;-78
2023/06/29 08:29:39;;;;;;;;;40.67;33.00;;;;;;;;5044676;28;45751;-76
2023/06/29 08:32:05;;;;;;;;;36.67;30.00;;;;;;;;5018436;28;45341;-77
2023/06/29 08:34:30;;;;;;;;;41.00;34.33;;;;;;;;5035399;28;45430;-77
2023/06/29 08:36:55;;;;;;;;;43.00;34.67;;;;;;;;5035315;28;45461;-77
2023/06/29 08:39:21;;;;;;;;;43.00;33.67;;;;;;;;5034903;28;45603;-77
2023/06/29 08:41:46;;;;;;;;;36.33;32.67;;;;;;;;5040936;28;45407;-77
2023/06/29 08:44:12;;;;;;;;;36.33;31.33;;;;;;;;5046793;28;45403;-77
2023/06/29 08:46:38;;;;;;;;;43.00;34.00;;;;;;;;5034582;28;45889;-76
2023/06/29 08:49:06;;;;;;;;;38.67;33.67;;;;;;;;5016386;28;47559;-76
2023/06/29 08:51:34;;;;;;;;;36.00;32.00;;;;;;;;5041764;28;45527;-77
2023/06/29 08:54:00;;;;;;;;;35.00;31.67;;;;;;;;5041902;28;45570;-77
2023/06/29 08:56:25;;;;;;;;;42.33;35.00;;;;;;;;5042287;28;45870;-77
2023/06/29 08:58:52;;;;;;;;;38.33;31.67;;;;;;;;5021695;28;46544;-78
2023/06/29 09:01:18;;;;;;;;;44.33;34.33;;;;;;;;5041322;28;45449;-76
2023/06/29 09:03:44;;;;;;;;;45.67;34.00;;;;;;;;5015187;28;45432;-76
2023/06/29 09:06:09;;;;;;;;;41.67;34.33;;;;;;;;5036143;28;45474;-77
2023/06/29 09:08:37;;;;;;;;;30.67;27.33;;;;;;;;5037172;28;45691;-77
2023/06/29 09:11:02;;;;;;;;;35.33;32.00;;;;;;;;5041170;28;45802;-79
2023/06/29 09:13:27;;;;;;;;;40.67;33.33;;;;;;;;5053223;28;45842;-76
2023/06/29 09:15:54;;;;;;;;;43.33;34.67;;;;;;;;5034537;28;45650;-75
2023/06/29 09:18:23;;;;;;;;;30.00;28.00;;;;;;;;5046984;28;45380;-78
2023/06/29 09:20:56;;;;;;;;;34.00;29.67;;;;;;;;5023522;28;46861;-78
2023/06/29 09:23:30;;;;;;;;;31.67;30.00;;;;;;;;5039143;28;45622;-77
2023/06/29 09:25:56;;;;;;;;;42.33;34.00;;;;;;;;5036100;28;47112;-76
2023/06/29 09:28:21;;;;;;;;;33.00;26.50;;;;;;;;5033883;28;45927;-78
2023/06/29 09:30:49;;;;;;;;;41.00;33.33;;;;;;;;5033139;28;45735;-77
2023/06/29 09:33:15;;;;;;;;;36.67;32.33;;;;;;;;5033713;28;45646;-78
2023/06/29 09:35:43;;;;;;;;;39.00;34.00;;;;;;;;5042241;28;45437;-78
2023/06/29 09:38:09;;;;;;;;;39.33;33.33;;;;;;;;5046862;28;47635;-77
2023/06/29 09:40:47;;;;;;;;;41.33;33.67;;;;;;;;5050398;28;45717;-77
2023/06/29 09:43:25;;;;;;;;;36.00;32.33;;;;;;;;5051160;28;45468;-78
2023/06/29 09:45:51;;;;;;;;;41.00;33.67;;;;;;;;5051019;28;45499;-79
2023/06/29 09:48:22;;;;;;;;;35.00;28.00;;;;;;;;5046288;28;45494;-78
2023/06/29 09:50:49;;;;;;;;;34.00;29.00;;;;;;;;5015703;28;45697;-79
2023/06/29 09:53:14;;;;;;;;;36.00;29.00;;;;;;;;5044539;28;45709;-79
2023/06/29 09:55:42;;;;;;;;;33.67;31.33;;;;;;;;5044112;28;45848;-80
2023/06/29 09:58:08;;;;;;;;;34.00;28.00;;;;;;;;5036991;28;46047;-80
2023/06/29 10:00:33;;;;;;;;;35.00;31.67;;;;;;;;5039817;28;45429;-78
2023/06/29 10:02:59;;;;;;;;;37.00;27.67;;;;;;;;5049386;28;46136;-77
2023/06/29 10:05:24;;;;;;;;;35.00;28.67;;;;;;;;5035932;28;46299;-76
2023/06/29 10:07:51;;;;;;;;;36.00;29.67;;;;;;;;5034065;28;45456;-76
2023/06/29 10:10:20;;;;;;;;;42.67;31.33;;;;;;;;5030433;28;45400;-78
2023/06/29 10:12:49;;;;;;;;;37.00;32.33;;;;;;;;5023132;28;45933;-76
2023/06/29 10:15:15;;;;;;;;;35.33;29.00;;;;;;;;5026610;28;45653;-78
2023/06/29 10:17:43;;;;;;;;;34.00;28.33;;;;;;;;5023001;28;45851;-78
2023/06/29 10:20:11;;;;;;;;;25.00;24.00;;;;;;;;5025399;28;45742;-77
2023/06/29 10:22:37;;;;;;;;;35.00;31.33;;;;;;;;5022994;28;45624;-78
2023/06/29 10:25:05;;;;;;;;;34.00;29.67;;;;;;;;5023704;28;45536;-80
2023/06/29 10:27:33;;;;;;;;;32.33;29.00;;;;;;;;5006742;28;47654;-78
2023/06/29 10:30:01;;;;;;;;;43.33;32.00;;;;;;;;5023570;28;45478;-77
2023/06/29 10:32:33;;;;;;;;;44.33;35.67;;;;;;;;5021751;28;45403;-79
2023/06/29 10:35:01;;;;;;;;;39.00;31.33;;;;;;;;5022066;28;45931;-77
2023/06/29 10:37:37;;;;;;;;;43.67;35.00;;;;;;;;5004466;28;47124;-79
2023/06/29 10:40:05;;;;;;;;;45.33;36.67;;;;;;;;5026385;28;46073;-79
2023/06/29 10:42:36;;;;;;;;;49.00;37.67;;;;;;;;5021300;28;45364;-82
2023/06/29 10:45:02;;;;;;;;;42.33;34.33;;;;;;;;5008676;28;46335;-77
2023/06/29 10:47:29;;;;;;;;;46.33;38.00;;;;;;;;5025624;28;46319;-79
2023/06/29 10:50:09;;;;;;;;;39.67;35.67;;;;;;;;5029836;28;45957;-78
2023/06/29 10:52:35;;;;;;;;;43.33;35.67;;;;;;;;5021482;28;45578;-78
2023/06/29 10:55:14;;;;;;;;;44.33;35.33;;;;;;;;5002282;28;46066;-78
2023/06/29 10:57:39;;;;;;;;;45.67;36.33;;;;;;;;5026793;28;47152;-79
2023/06/29 11:00:05;;;;;;;;;41.00;33.67;;;;;;;;5022538;28;45502;-80
2023/06/29 11:02:30;;;;;;;;;46.00;36.67;;;;;;;;5004773;28;46019;-82
2023/06/29 11:04:55;;;;;;;;;43.33;37.33;;;;;;;;5009474;28;46140;-78
2023/06/29 11:07:21;;;;;;;;;46.67;36.67;;;;;;;;5034637;28;46692;-79
2023/06/29 11:09:46;;;;;;;;;38.67;35.00;;;;;;;;5016375;28;45900;-79
2023/06/29 11:12:11;;;;;;;;;43.67;35.33;;;;;;;;5030423;28;45707;-79
2023/06/29 11:14:38;;;;;;;;;39.33;35.33;;;;;;;;5030158;28;45552;-83
2023/06/29 11:17:06;;;;;;;;;46.00;37.00;;;;;;;;5027558;28;45976;-78
2023/06/29 11:19:31;;;;;;;;;41.33;33.33;;;;;;;;5020965;28;45965;-79
2023/06/29 11:21:58;;;;;;;;;41.67;34.33;;;;;;;;5024946;28;45812;-80
2023/06/29 11:24:23;;;;;;;;;39.67;34.33;;;;;;;;5012397;28;45988;-79
2023/06/29 11:26:48;;;;;;;;;42.00;35.00;;;;;;;;5014929;28;48129;-78
2023/06/29 11:29:14;;;;;;;;;36.33;32.00;;;;;;;;5036006;28;45783;-79
2023/06/29 11:31:39;;;;;;;;;45.33;37.00;;;;;;;;5035232;28;45408;-79
2023/06/29 11:34:04;;;;;;;;;42.67;36.00;;;;;;;;5034389;28;45454;-77
2023/06/29 11:36:31;;;;;;;;;47.67;38.00;;;;;;;;5033529;28;45991;-79
2023/06/29 11:39:08;;;;;;;;;45.67;37.67;;;;;;;;5023117;28;45881;-78
2023/06/29 11:41:33;;;;;;;;;46.67;39.00;;;;;;;;5021035;28;45887;-79
2023/06/29 11:44:00;;;;;;;;;49.33;41.00;;;;;;;;5041442;28;45567;-78
2023/06/29 11:46:25;;;;;;;;;44.33;35.33;;;;;;;;5036526;28;45522;-81
2023/06/29 11:48:56;;;;;;;;;42.33;37.00;;;;;;;;5031242;28;46731;-82
2023/06/29 11:51:24;;;;;;;;;48.00;37.00;;;;;;;;5015724;28;45514;-80
2023/06/29 11:53:50;;;;;;;;;45.33;34.33;;;;;;;;5032436;28;45577;-80
2023/06/29 11:56:36;;;;;;;;;42.00;35.33;;;;;;;;5019802;28;46334;-80
2023/06/29 11:59:05;;;;;;;;;43.67;36.33;;;;;;;;5035368;28;45780;-81
2023/06/29 12:01:47;;;;;;;;;;;;;;;;;;;;;
2023/06/29 12:04:30;;;;;;;;;44.67;38.33;;;;;;;;5025225;28;77406;-86
2023/06/29 12:07:06;;;;;;;;;44.67;36.00;;;;;;;;5004057;28;45598;-82
2023/06/29 12:09:32;;;;;;;;;43.67;34.33;;;;;;;;5010029;28;45793;-84
2023/06/29 12:12:12;;;;;;;;;;;;;;;;;;;;;
2023/06/29 12:14:42;;;;;;;;;43.00;34.33;;;;;;;;5021535;28;74228;-84
2023/06/29 12:17:18;;;;;;;;;41.67;35.00;;;;;;;;5007798;28;45388;-85
2023/06/29 12:19:48;;;;;;;;;39.00;32.33;;;;;;;;5034871;28;45410;-85
2023/06/29 12:22:35;;;;;;;;;41.00;34.67;;;;;;;;5045675;28;45539;-84
2023/06/29 12:25:04;;;;;;;;;35.33;30.67;;;;;;;;5027489;28;45570;-82
2023/06/29 12:27:31;;;;;;;;;32.00;30.67;;;;;;;;5036113;28;45506;-84
2023/06/29 12:33:42;;;;;;;;;35.33;31.00;;;;;;;;4972378;28;45484;-84
2023/06/29 12:36:08;;;;;;;;;30.00;27.33;;;;;;;;4997466;28;45337;-83
2023/06/29 12:38:36;;;;;;;;;35.00;31.67;;;;;;;;5051822;28;45875;-81
2023/06/29 12:41:02;;;;;;;;;37.67;30.67;;;;;;;;5036822;28;45450;-80
2023/06/29 12:43:28;;;;;;;;;32.67;27.33;;;;;;;;5049025;28;45587;-80
2023/06/29 12:45:53;;;;;;;;;31.67;28.67;;;;;;;;5043603;28;45402;-81
2023/06/29 12:48:18;;;;;;;;;35.00;30.00;;;;;;;;5043380;28;45508;-80
2023/06/29 12:50:48;;;;;;;;;35.67;27.00;;;;;;;;5034355;28;45721;-82
2023/06/29 12:53:13;;;;;;;;;44.00;31.00;;;;;;;;5035605;28;45787;-82
2023/06/29 12:55:39;;;;;;;;;25.00;24.00;;;;;;;;5042401;28;45805;-79
2023/06/29 12:58:05;;;;;;;;;32.33;27.33;;;;;;;;5029072;28;45950;-80
2023/06/29 13:00:30;;;;;;;;;24.00;23.00;;;;;;;;5043329;28;45547;-82
2023/06/29 13:02:57;;;;;;;;;34.00;27.67;;;;;;;;5043774;28;45390;-81
2023/06/29 13:05:23;;;;;;;;;27.67;23.33;;;;;;;;5043703;28;46842;-81
2023/06/29 13:07:50;;;;;;;;;33.33;29.00;;;;;;;;5030026;28;45580;-82
2023/06/29 13:10:18;;;;;;;;;35.00;28.33;;;;;;;;5038807;28;45338;-82
2023/06/29 13:12:48;;;;;;;;;31.67;29.67;;;;;;;;5028257;28;45513;-83
2023/06/29 13:15:13;;;;;;;;;35.00;29.33;;;;;;;;5040655;28;45477;-81
2023/06/29 13:17:39;;;;;;;;;35.67;30.00;;;;;;;;5037684;28;47989;-81
2023/06/29 13:20:04;;;;;;;;;26.33;23.33;;;;;;;;5051143;28;45342;-80
2023/06/29 13:22:31;;;;;;;;;34.00;27.00;;;;;;;;5044613;28;45966;-83
2023/06/29 13:24:59;;;;;;;;;20.67;18.00;;;;;;;;5046389;28;45461;-81
2023/06/29 13:27:24;;;;;;;;;27.50;21.75;;;;;;;;5047122;28;45545;-82
2023/06/29 13:29:50;;;;;;;;;25.00;22.00;;;;;;;;5037963;28;45488;-81
2023/06/29 13:32:15;;;;;;;;;20.00;20.00;;;;;;;;5038653;28;45691;-81
2023/06/29 13:34:40;;;;;;;;;28.00;23.33;;;;;;;;5041153;28;45795;-83
2023/06/29 13:37:05;;;;;;;;;27.33;19.33;;;;;;;;5029282;28;45470;-84
2023/06/29 13:39:31;;;;;;;;;24.00;23.67;;;;;;;;5010198;28;45458;-84
2023/06/29 13:41:56;;;;;;;;;23.33;20.67;;;;;;;;5024819;28;45526;-83
2023/06/29 13:44:21;;;;;;;;;24.33;23.00;;;;;;;;5025410;28;45722;-83
2023/06/29 13:46:47;;;;;;;;;23.33;20.33;;;;;;;;5010180;28;46601;-81
2023/06/29 13:49:12;;;;;;;;;20.25;15.75;;;;;;;;5015481;28;45404;-83
2023/06/29 13:51:37;;;;;;;;;21.33;18.33;;;;;;;;5032818;28;45970;-82
2023/06/29 13:54:04;;;;;;;;;22.50;17.00;;;;;;;;5027852;28;45523;-83
2023/06/29 13:56:32;;;;;;;;;18.00;17.00;;;;;;;;5024594;28;46133;-81
2023/06/29 13:58:57;;;;;;;;;24.50;19.50;;;;;;;;5023815;28;45701;-83
2023/06/29 14:01:22;;;;;;;;;22.67;20.67;;;;;;;;5038462;28;45500;-82
2023/06/29 14:03:47;;;;;;;;;18.67;16.00;;;;;;;;5042316;28;45398;-82
2023/06/29 14:06:13;;;;;;;;;22.25;17.00;;;;;;;;5051431;28;45558;-79
2023/06/29 14:08:39;;;;;;;;;23.00;17.67;;;;;;;;5053905;28;45962;-82
2023/06/29 14:11:05;;;;;;;;;16.25;14.25;;;;;;;;5021452;28;45567;-81
2023/06/29 14:13:30;;;;;;;;;19.67;16.33;;;;;;;;5042940;28;45670;-82
2023/06/29 14:15:56;;;;;;;;;21.33;17.33;;;;;;;;5021236;28;45422;-81
2023/06/29 14:18:22;;;;;;;;;20.75;14.75;;;;;;;;5032524;28;45766;-81
2023/06/29 14:20:47;;;;;;;;;17.00;14.00;;;;;;;;5037579;28;45932;-81
2023/06/29 14:23:12;;;;;;;;;22.50;19.25;;;;;;;;5036712;28;45754;-81